Home > Products > Valid Products > TAF

000
FTPQ31 PGUM 311700
TAFPQ
TAF
PGUM 311720Z 3118/0124 VRB05KT P6SM VCSH FEW020 BKN100
     FM010000 16011KT P6SM VCSH FEW020 SCT120=



000
FTPQ31 PGUM 311700
TAFPQ
TAF
PGUM 311720Z 3118/0124 VRB05KT P6SM VCSH FEW020 BKN100
     FM010000 16011KT P6SM VCSH FEW020 SCT120=



000
FTPQ31 PGUM 311400 AAA
TAFPQ
TAF AMD
PGUM 311427Z 3114/0118 VRB06KT P6SM VCSH FEW016 SCT040 BKN100
      TEMPO 3114/3116 20012KT 5SM SHRA SCT014 BKN025
     FM010000 18008KT P6SM VCSH FEW016 SCT050 BKN120=



000
FTPQ31 PGUM 311400 AAA
TAFPQ
TAF AMD
PGUM 311427Z 3114/0118 VRB06KT P6SM VCSH FEW016 SCT040 BKN100
      TEMPO 3114/3116 20012KT 5SM SHRA SCT014 BKN025
     FM010000 18008KT P6SM VCSH FEW016 SCT050 BKN120=



000
FTPQ31 PGUM 311100
TAFPQ
TAF
PGUM 311120Z 3112/0118 VRB06KT P6SM VCSH FEW016 SCT040 BKN100
      TEMPO 3112/3114 20012KT 5SM SHRA SCT014 BKN025
     FM010000 18008KT P6SM VCSH FEW016 SCT050 BKN120=



000
FTPQ31 PGUM 311100
TAFPQ
TAF
PGUM 311120Z 3112/0118 VRB06KT P6SM VCSH FEW016 SCT040 BKN100
      TEMPO 3112/3114 20012KT 5SM SHRA SCT014 BKN025
     FM010000 18008KT P6SM VCSH FEW016 SCT050 BKN120=



000
FTPQ31 PGUM 310900 AAA
TAFPQ
TAF AMD
PGUM 310950Z 3110/0112 VRB06KT P6SM VCSH FEW016 SCT060 BKN100
      TEMPO 3110/3113 20012KT 5SM SHRA SCT014 BKN025
     FM010000 18008KT P6SM VCSH FEW016 SCT060 BKN120=



000
FTPQ31 PGUM 310900 AAA
TAFPQ
TAF AMD
PGUM 310950Z 3110/0112 VRB06KT P6SM VCSH FEW016 SCT060 BKN100
      TEMPO 3110/3113 20012KT 5SM SHRA SCT014 BKN025
     FM010000 18008KT P6SM VCSH FEW016 SCT060 BKN120=



000
FTPQ31 PGUM 310500
TAFPQ
TAF
PGUM 310540Z 3106/0112 17011KT P6SM VCSH FEW014 SCT060 BKN100
     FM310800 20007KT P6SM VCSH FEW014 SCT060 BKN120=



000
FTPQ31 PGUM 310500
TAFPQ
TAF
PGUM 310540Z 3106/0112 17011KT P6SM VCSH FEW014 SCT060 BKN100
     FM310800 20007KT P6SM VCSH FEW014 SCT060 BKN120=



000
FTPQ31 PGUM 302300
TAFPQ
TAF
PGUM 302332Z 3100/0106 16007KT 6SM -RA SCT015 BKN035 OVC100
      TEMPO 3100/3102 VRB11G18KT 3SM SHRA SCT014 BKN025 OVC040
     FM310400 19011KT P6SM VCSH SCT014 SCT040 BKN100
     FM310900 20007KT P6SM VCSH SCT015 SCT050 BKN120=



000
FTPQ31 PGUM 302300
TAFPQ
TAF
PGUM 302332Z 3100/0106 16007KT 6SM -RA SCT015 BKN035 OVC100
      TEMPO 3100/3102 VRB11G18KT 3SM SHRA SCT014 BKN025 OVC040
     FM310400 19011KT P6SM VCSH SCT014 SCT040 BKN100
     FM310900 20007KT P6SM VCSH SCT015 SCT050 BKN120=



000
FTPQ31 PGUM 302100 AAA
TAFPQ
TAF AMD
PGUM 302155Z 3022/3124 17007KT P6SM VCSH SCT015 SCT030 OVC120
      TEMPO 3022/3024 11011G18KT 3SM SHRA SCT014 BKN025
     FM310000 18010G18KT P6SM VCSH SCT015 SCT050 BKN120=



000
FTPQ31 PGUM 302100 AAA
TAFPQ
TAF AMD
PGUM 302155Z 3022/3124 17007KT P6SM VCSH SCT015 SCT030 OVC120
      TEMPO 3022/3024 11011G18KT 3SM SHRA SCT014 BKN025
     FM310000 18010G18KT P6SM VCSH SCT015 SCT050 BKN120=



000
FTPQ31 PGUM 301700
TAFPQ
TAF
PGUM 301724Z 3018/3124 19007KT P6SM VCSH SCT015 SCT030 OVC120
      TEMPO 3018/3021 21011G23KT 4SM SHRA SCT014 BKN025
     FM302300 19011G22KT P6SM VCSH SCT015 SCT050 BKN120=



000
FTPQ31 PGUM 301700
TAFPQ
TAF
PGUM 301724Z 3018/3124 19007KT P6SM VCSH SCT015 SCT030 OVC120
      TEMPO 3018/3021 21011G23KT 4SM SHRA SCT014 BKN025
     FM302300 19011G22KT P6SM VCSH SCT015 SCT050 BKN120=



000
FTPQ31 PGUM 301300 AAA
TAFPQ
TAF AMD
PGUM 301345Z 3014/3118 22010KT P6SM VCSH SCT015 SCT030 OVC120
      WS020/21030KT
     FM302300 19012G22KT P6SM VCSH SCT015 SCT050 BKN120=



000
FTPQ31 PGUM 301300 AAA
TAFPQ
TAF AMD
PGUM 301345Z 3014/3118 22010KT P6SM VCSH SCT015 SCT030 OVC120
      WS020/21030KT
     FM302300 19012G22KT P6SM VCSH SCT015 SCT050 BKN120=



000
FTPQ31 PGUM 301100
TAFPQ
TAF
PGUM 301126Z 3012/3118 20015G25KT P6SM -RA SCT012 BKN030 OVC100
      TEMPO 3012/3015 4SM SHRA SCT010 BKN020 OVC050
     FM302300 19012G22KT P6SM VCSH SCT012 BKN030 BKN120=



000
FTPQ31 PGUM 300500
TAFPQ
TAF
PGUM 300539Z 3006/3112 22020G35KT 3SM SHRA SCT013 BKN030 OVC100
      TEMPO 3006/3009 22030G45KT 1/2SM +SHRA SCT005 BKN010 OVC025
     FM300900 20020G35KT 5SM -SHRA SCT012 BKN030 OVC100
      TEMPO 3009/3012 3SM SHRA SCT010 BKN020 OVC050
     FM302300 19016G25KT P6SM VCSH SCT012 BKN030 BKN120=



000
FTPQ31 PGUM 300500
TAFPQ
TAF
PGUM 300539Z 3006/3112 22020G35KT 3SM SHRA SCT013 BKN030 OVC100
      TEMPO 3006/3009 22030G45KT 1/2SM +SHRA SCT005 BKN010 OVC025
     FM300900 20020G35KT 5SM -SHRA SCT012 BKN030 OVC100
      TEMPO 3009/3012 3SM SHRA SCT010 BKN020 OVC050
     FM302300 19016G25KT P6SM VCSH SCT012 BKN030 BKN120=



000
FTPQ31 PGUM 300200 AAA
TAFPQ
TAF AMD
PGUM 300258Z 3003/3106 24025G45KT 3SM SHRA SCT010 BKN030 OVC080
      TEMPO 3003/3007 24040G60KT 1/2SM +SHRA SCT005 BKN010
     FM300700 22025G40KT 4SM SHRA SCT012 BKN030 BKN080
     FM302300 19016G25KT P6SM VCSH SCT012 BKN030 BKN120=



000
FTPQ31 PGUM 300200 AAA
TAFPQ
TAF AMD
PGUM 300258Z 3003/3106 24025G45KT 3SM SHRA SCT010 BKN030 OVC080
      TEMPO 3003/3007 24040G60KT 1/2SM +SHRA SCT005 BKN010
     FM300700 22025G40KT 4SM SHRA SCT012 BKN030 BKN080
     FM302300 19016G25KT P6SM VCSH SCT012 BKN030 BKN120=



000
FTPQ31 PGUM 292300 RRA
TAFPQ
TAF
PGUM 292346Z 3000/3106 27030G40KT 2SM +SHRA SCT007 OVC015
      TEMPO 3000/3003 28040G55KT 1/2SM +SHRA SCT005 BKN010
     FM300300 24040G60KT 3SM SHRA SCT010 BKN030 OVC080
     FM300700 22025G40KT 4SM SHRA SCT012 BKN030 BKN080
     FM302300 19016G25KT P6SM VCSH SCT012 BKN030 BKN120=



000
FTPQ31 PGUM 292300 RRA
TAFPQ
TAF
PGUM 292346Z 3000/3106 27030G40KT 2SM +SHRA SCT007 OVC015
      TEMPO 3000/3003 28040G55KT 1/2SM +SHRA SCT005 BKN010
     FM300300 24040G60KT 3SM SHRA SCT010 BKN030 OVC080
     FM300700 22025G40KT 4SM SHRA SCT012 BKN030 BKN080
     FM302300 19016G25KT P6SM VCSH SCT012 BKN030 BKN120=



000
FTPQ31 PGUM 292000 AAC
TAFPQ
TAF AMD
PGUM 292057Z 2921/3024 29030G40KT 2SM +SHRA SCT007 OVC015
     FM300300 24022G32KT 5SM SHRA SCT010 BKN030 OVC080
     FM301200 23018G30KT 6SM SHRA SCT012 BKN030 BKN080
     FM302300 19016G25KT P6SM VCSH SCT012 BKN030 BKN120=



000
FTPQ31 PGUM 292000 AAC
TAFPQ
TAF AMD
PGUM 292057Z 2921/3024 29030G40KT 2SM +SHRA SCT007 OVC015
     FM300300 24022G32KT 5SM SHRA SCT010 BKN030 OVC080
     FM301200 23018G30KT 6SM SHRA SCT012 BKN030 BKN080
     FM302300 19016G25KT P6SM VCSH SCT012 BKN030 BKN120=



000
FTPQ31 PGUM 291900 AAA
TAFPQ
TAF AMD
PGUM 291944Z 2920/3024 29030G40KT 3SM +SHRA SCT007 OVC020
     FM300300 24022G32KT 5SM SHRA SCT010 BKN030 OVC080
     FM301200 23018G30KT 6SM SHRA SCT012 BKN030 BKN080
     FM302300 19016G25KT P6SM VCSH SCT012 BKN030 BKN120=



000
FTPQ31 PGUM 291900 AAA
TAFPQ
TAF AMD
PGUM 291944Z 2920/3024 29030G40KT 3SM +SHRA SCT007 OVC020
     FM300300 24022G32KT 5SM SHRA SCT010 BKN030 OVC080
     FM301200 23018G30KT 6SM SHRA SCT012 BKN030 BKN080
     FM302300 19016G25KT P6SM VCSH SCT012 BKN030 BKN120=



000
FTPQ31 PGUM 291700
TAFPQ
TAF
PGUM 291720Z 2918/3024 30020G32KT 6SM SHRA SCT009 BKN020 OVC080
     FM292300 26030G40KT 3SM +SHRA SCT007 OVC020
     FM300600 23022G35KT 5SM SHRA SCT009 BKN020 OVC040
     FM301500 22018G30KT P6SM VCSH SCT010 BKN030 BKN080
     FM302300 19016G25KT P6SM VCSH SCT012 BKN030 BKN120=



000
FTPQ31 PGUM 291700
TAFPQ
TAF
PGUM 291720Z 2918/3024 30020G32KT 6SM SHRA SCT009 BKN020 OVC080
     FM292300 26030G40KT 3SM +SHRA SCT007 OVC020
     FM300600 23022G35KT 5SM SHRA SCT009 BKN020 OVC040
     FM301500 22018G30KT P6SM VCSH SCT010 BKN030 BKN080
     FM302300 19016G25KT P6SM VCSH SCT012 BKN030 BKN120=



000
FTPQ31 PGUM 291400 AAA
TAFPQ
TAF AMD
PGUM 291413Z 2914/3018 29018G28KT P6SM -SHRA SCT015 SCT040 BKN100
      TEMPO 2914/2917 29025G36KT 1SM +SHRA SCT010 BKN020 OVC035
     FM291800 31020G32KT P6SM -SHRA SCT014 BKN040 OVC100
      TEMPO 2918/2922 30025G36KT 3SM +SHRA SCT012 OVC025=



000
FTPQ31 PGUM 291400 AAA
TAFPQ
TAF AMD
PGUM 291413Z 2914/3018 29018G28KT P6SM -SHRA SCT015 SCT040 BKN100
      TEMPO 2914/2917 29025G36KT 1SM +SHRA SCT010 BKN020 OVC035
     FM291800 31020G32KT P6SM -SHRA SCT014 BKN040 OVC100
      TEMPO 2918/2922 30025G36KT 3SM +SHRA SCT012 OVC025=



000
FTPQ31 PGUM 291100
TAFPQ
TAF
PGUM 291132Z 2912/3018 29018G28KT P6SM -SHRA SCT015 SCT040 BKN100
      TEMPO 2912/2916 29025G36KT 3SM +SHRA SCT014 BKN030
     FM291800 31020G32KT P6SM -SHRA SCT014 BKN040 OVC100
      TEMPO 2918/2922 30025G36KT 3SM +SHRA SCT012 OVC025=



000
FTPQ31 PGUM 291100
TAFPQ
TAF
PGUM 291132Z 2912/3018 29018G28KT P6SM -SHRA SCT015 SCT040 BKN100
      TEMPO 2912/2916 29025G36KT 3SM +SHRA SCT014 BKN030
     FM291800 31020G32KT P6SM -SHRA SCT014 BKN040 OVC100
      TEMPO 2918/2922 30025G36KT 3SM +SHRA SCT012 OVC025=



000
FTPQ31 PGUM 290500 RRA
TAFPQ
TAF
PGUM 290550Z 2906/3012 28015KT P6SM VCSH SCT016 SCT040 BKN100
      TEMPO 2906/2910 27015G25KT 4SM SHRA SCT014 BKN025
     FM291400 27018G28KT P6SM VCSH SCT014 BKN040 OVC100
      TEMPO 2914/2918 27022G32KT 3SM +SHRA BKN012 OVC025=



000
FTPQ31 PGUM 290500 RRA
TAFPQ
TAF
PGUM 290550Z 2906/3012 28015KT P6SM VCSH SCT016 SCT040 BKN100
      TEMPO 2906/2910 27015G25KT 4SM SHRA SCT014 BKN025
     FM291400 27018G28KT P6SM VCSH SCT014 BKN040 OVC100
      TEMPO 2914/2918 27022G32KT 3SM +SHRA BKN012 OVC025=



000
FTPQ31 PGUM 290300 AAA
TAFPQ
TAF AMD
PGUM 290314Z 2903/3006 29015KT P6SM VCSH SCT016 SCT040 BKN100
      TEMPO 2903/2907 27015G25KT 4SM SHRA SCT014 BKN025=



000
FTPQ31 PGUM 290300 AAA
TAFPQ
TAF AMD
PGUM 290314Z 2903/3006 29015KT P6SM VCSH SCT016 SCT040 BKN100
      TEMPO 2903/2907 27015G25KT 4SM SHRA SCT014 BKN025=



000
FTPQ31 PGUM 282300
TAFPQ
TAF
PGUM 282320Z 2900/3006 32011KT P6SM VCSH SCT016 SCT040 BKN100
      TEMPO 2900/2904 4SM SHRA SCT014 BKN025=



000
FTPQ31 PGUM 282300
TAFPQ
TAF
PGUM 282320Z 2900/3006 32011KT P6SM VCSH SCT016 SCT040 BKN100
      TEMPO 2900/2904 4SM SHRA SCT014 BKN025=



    US Dept of Commerce
    National Oceanic and Atmospheric Administration
    National Weather Service
    1325 East West Highway
    Silver Spring, MD 20910
    Page Author: NWS Internet Services Team
Disclaimer
Information Quality
Credits
Glossary
Privacy Policy
Freedom of Information Act (FOIA)
About Us
Career Opportunities